sensor_id;sensor_type;location;lat;lon;timestamp;pressure;altitude;pressure_sealevel;temperature;humidity
78573;BME280;67862;0.000;0.000;2023-07-13T00:01:42;98945.25;;;24.71;58.90
78573;BME280;67862;0.000;0.000;2023-07-13T00:04:08;98947.56;;;24.46;58.99
78573;BME280;67862;0.000;0.000;2023-07-13T00:06:33;98951.63;;;24.49;59.02
78573;BME280;67862;0.000;0.000;2023-07-13T00:09:00;98952.19;;;24.68;58.60
78573;BME280;67862;0.000;0.000;2023-07-13T00:11:25;98947.97;;;24.62;58.18
78573;BME280;67862;0.000;0.000;2023-07-13T00:13:51;98955.78;;;24.86;58.65
78573;BME280;67862;0.000;0.000;2023-07-13T00:16:16;98951.28;;;24.90;57.54
78573;BME280;67862;0.000;0.000;2023-07-13T00:18:44;98942.91;;;24.95;58.04
78573;BME280;67862;0.000;0.000;2023-07-13T00:21:09;98927.34;;;24.73;58.82
78573;BME280;67862;0.000;0.000;2023-07-13T00:23:36;98925.25;;;24.88;58.47
78573;BME280;67862;0.000;0.000;2023-07-13T00:26:02;98925.28;;;24.96;57.81
78573;BME280;67862;0.000;0.000;2023-07-13T00:28:28;98927.22;;;24.96;57.82
78573;BME280;67862;0.000;0.000;2023-07-13T00:30:54;98914.28;;;24.88;58.56
78573;BME280;67862;0.000;0.000;2023-07-13T00:33:19;98909.94;;;24.95;58.55
78573;BME280;67862;0.000;0.000;2023-07-13T00:35:44;98892.78;;;24.90;58.50
78573;BME280;67862;0.000;0.000;2023-07-13T00:38:10;98891.03;;;24.94;58.69
78573;BME280;67862;0.000;0.000;2023-07-13T00:40:36;98886.69;;;24.93;58.20
78573;BME280;67862;0.000;0.000;2023-07-13T00:43:01;98869.19;;;24.80;58.88
78573;BME280;67862;0.000;0.000;2023-07-13T00:47:52;98859.53;;;24.74;60.16
78573;BME280;67862;0.000;0.000;2023-07-13T00:50:17;98845.78;;;24.74;59.96
78573;BME280;67862;0.000;0.000;2023-07-13T00:52:45;98835.78;;;24.87;60.07
78573;BME280;67862;0.000;0.000;2023-07-13T00:55:11;98828.19;;;24.66;60.85
78573;BME280;67862;0.000;0.000;2023-07-13T00:57:38;98817.69;;;24.68;60.99
78573;BME280;67862;0.000;0.000;2023-07-13T01:00:04;98799.59;;;24.67;60.91
78573;BME280;67862;0.000;0.000;2023-07-13T01:02:37;98794.75;;;24.64;60.88
78573;BME280;67862;0.000;0.000;2023-07-13T01:05:17;98781.53;;;24.75;60.14
78573;BME280;67862;0.000;0.000;2023-07-13T01:07:43;98778.31;;;24.81;60.51
78573;BME280;67862;0.000;0.000;2023-07-13T01:10:09;98775.22;;;24.74;60.46
78573;BME280;67862;0.000;0.000;2023-07-13T01:12:35;98765.69;;;24.98;59.40
78573;BME280;67862;0.000;0.000;2023-07-13T01:15:01;98766.66;;;24.84;59.82
78573;BME280;67862;0.000;0.000;2023-07-13T01:17:27;98768.28;;;24.77;59.48
78573;BME280;67862;0.000;0.000;2023-07-13T01:19:53;98767.81;;;24.83;59.08
78573;BME280;67862;0.000;0.000;2023-07-13T01:22:18;98769.75;;;24.92;59.10
78573;BME280;67862;0.000;0.000;2023-07-13T01:24:45;98772.81;;;24.90;58.51
78573;BME280;67862;0.000;0.000;2023-07-13T01:27:11;98773.78;;;24.94;57.99
78573;BME280;67862;0.000;0.000;2023-07-13T01:29:38;98776.19;;;24.87;58.07
78573;BME280;67862;0.000;0.000;2023-07-13T01:32:09;98771.03;;;24.77;58.38
78573;BME280;67862;0.000;0.000;2023-07-13T01:34:35;98770.69;;;24.70;58.62
78573;BME280;67862;0.000;0.000;2023-07-13T01:37:00;98769.06;;;24.60;58.84
78573;BME280;67862;0.000;0.000;2023-07-13T01:39:26;98766.81;;;24.53;58.55
78573;BME280;67862;0.000;0.000;2023-07-13T01:41:51;98770.03;;;24.47;58.63
78573;BME280;67862;0.000;0.000;2023-07-13T01:44:17;98760.66;;;24.48;58.26
78573;BME280;67862;0.000;0.000;2023-07-13T01:46:42;98751.63;;;24.39;58.23
78573;BME280;67862;0.000;0.000;2023-07-13T01:49:07;98745.69;;;24.54;57.77
78573;BME280;67862;0.000;0.000;2023-07-13T01:51:33;98743.25;;;24.44;58.14
78573;BME280;67862;0.000;0.000;2023-07-13T01:53:58;98741.31;;;24.53;57.85
78573;BME280;67862;0.000;0.000;2023-07-13T01:56:24;98738.91;;;24.51;57.82
78573;BME280;67862;0.000;0.000;2023-07-13T01:58:49;98730.00;;;24.46;58.06
78573;BME280;67862;0.000;0.000;2023-07-13T02:01:14;98731.63;;;24.47;57.80
78573;BME280;67862;0.000;0.000;2023-07-13T02:03:40;98741.13;;;24.41;57.66
78573;BME280;67862;0.000;0.000;2023-07-13T02:06:05;98730.97;;;24.50;57.61
78573;BME280;67862;0.000;0.000;2023-07-13T02:08:32;98721.59;;;24.51;57.21
78573;BME280;67862;0.000;0.000;2023-07-13T02:10:58;98715.00;;;24.52;57.62
78573;BME280;67862;0.000;0.000;2023-07-13T02:13:23;98710.00;;;24.54;57.86
78573;BME280;67862;0.000;0.000;2023-07-13T02:15:52;98719.38;;;24.53;57.82
78573;BME280;67862;0.000;0.000;2023-07-13T02:18:17;98717.91;;;24.47;57.90
78573;BME280;67862;0.000;0.000;2023-07-13T02:20:43;98725.31;;;24.46;58.25
78573;BME280;67862;0.000;0.000;2023-07-13T02:23:08;98718.22;;;24.37;58.17
78573;BME280;67862;0.000;0.000;2023-07-13T02:25:34;98717.09;;;24.38;57.89
78573;BME280;67862;0.000;0.000;2023-07-13T02:27:59;98726.13;;;24.38;57.87
78573;BME280;67862;0.000;0.000;2023-07-13T02:30:25;98724.84;;;24.36;57.93
78573;BME280;67862;0.000;0.000;2023-07-13T02:32:50;98728.88;;;24.38;57.55
78573;BME280;67862;0.000;0.000;2023-07-13T02:35:16;98724.19;;;24.39;57.72
78573;BME280;67862;0.000;0.000;2023-07-13T02:37:41;98724.03;;;24.35;57.21
78573;BME280;67862;0.000;0.000;2023-07-13T02:40:06;98718.97;;;24.28;57.53
78573;BME280;67862;0.000;0.000;2023-07-13T02:42:34;98720.28;;;24.31;57.94
78573;BME280;67862;0.000;0.000;2023-07-13T02:44:59;98724.94;;;24.31;58.18
78573;BME280;67862;0.000;0.000;2023-07-13T02:47:24;98729.78;;;24.16;58.24
78573;BME280;67862;0.000;0.000;2023-07-13T02:49:53;98731.84;;;24.11;58.22
78573;BME280;67862;0.000;0.000;2023-07-13T02:52:19;98724.88;;;23.96;58.22
78573;BME280;67862;0.000;0.000;2023-07-13T02:54:45;98725.03;;;23.99;59.20
78573;BME280;67862;0.000;0.000;2023-07-13T02:57:10;98732.75;;;23.89;59.63
78573;BME280;67862;0.000;0.000;2023-07-13T02:59:36;98725.88;;;23.60;61.16
78573;BME280;67862;0.000;0.000;2023-07-13T03:02:02;98724.88;;;23.56;61.69
78573;BME280;67862;0.000;0.000;2023-07-13T03:04:27;98728.25;;;23.93;60.16
78573;BME280;67862;0.000;0.000;2023-07-13T03:06:52;98734.06;;;24.00;58.99
78573;BME280;67862;0.000;0.000;2023-07-13T03:09:18;98732.19;;;24.18;58.50
78573;BME280;67862;0.000;0.000;2023-07-13T03:11:43;98729.94;;;24.28;57.65
78573;BME280;67862;0.000;0.000;2023-07-13T03:14:09;98741.13;;;24.32;57.60
78573;BME280;67862;0.000;0.000;2023-07-13T03:16:34;98754.13;;;23.69;61.22
78573;BME280;67862;0.000;0.000;2023-07-13T03:18:59;98772.50;;;23.69;62.01
78573;BME280;67862;0.000;0.000;2023-07-13T03:21:25;98779.69;;;23.56;62.71
78573;BME280;67862;0.000;0.000;2023-07-13T03:23:50;98774.84;;;23.31;64.11
78573;BME280;67862;0.000;0.000;2023-07-13T03:26:16;98783.78;;;23.67;62.55
78573;BME280;67862;0.000;0.000;2023-07-13T03:28:43;98787.16;;;23.64;62.52
78573;BME280;67862;0.000;0.000;2023-07-13T03:31:10;98777.59;;;23.31;64.54
78573;BME280;67862;0.000;0.000;2023-07-13T03:33:36;98770.75;;;23.20;65.01
78573;BME280;67862;0.000;0.000;2023-07-13T03:36:02;98762.22;;;23.75;62.55
78573;BME280;67862;0.000;0.000;2023-07-13T03:38:28;98763.72;;;23.58;63.29
78573;BME280;67862;0.000;0.000;2023-07-13T03:40:53;98768.41;;;23.89;62.43
78573;BME280;67862;0.000;0.000;2023-07-13T03:43:19;98758.06;;;23.01;65.53
78573;BME280;67862;0.000;0.000;2023-07-13T03:45:46;98753.63;;;22.92;65.80
78573;BME280;67862;0.000;0.000;2023-07-13T03:48:11;98750.22;;;23.08;65.05
78573;BME280;67862;0.000;0.000;2023-07-13T03:50:36;98754.34;;;23.51;63.50
78573;BME280;67862;0.000;0.000;2023-07-13T03:53:02;98758.03;;;23.46;64.16
78573;BME280;67862;0.000;0.000;2023-07-13T03:55:27;98761.53;;;23.38;64.14
78573;BME280;67862;0.000;0.000;2023-07-13T03:57:54;98773.81;;;23.18;65.28
78573;BME280;67862;0.000;0.000;2023-07-13T04:00:22;98775.47;;;23.28;65.38
78573;BME280;67862;0.000;0.000;2023-07-13T04:02:47;98776.47;;;23.09;65.64
78573;BME280;67862;0.000;0.000;2023-07-13T04:05:14;98777.63;;;23.62;63.56
78573;BME280;67862;0.000;0.000;2023-07-13T04:07:40;98779.13;;;23.68;63.97
78573;BME280;67862;0.000;0.000;2023-07-13T04:10:05;98780.41;;;23.70;63.78
78573;BME280;67862;0.000;0.000;2023-07-13T04:12:31;98784.63;;;23.77;63.45
78573;BME280;67862;0.000;0.000;2023-07-13T04:14:56;98794.75;;;23.45;64.97
78573;BME280;67862;0.000;0.000;2023-07-13T04:17:21;98802.06;;;23.27;65.44
78573;BME280;67862;0.000;0.000;2023-07-13T04:19:47;98816.72;;;23.31;65.46
78573;BME280;67862;0.000;0.000;2023-07-13T04:22:14;98830.59;;;23.12;67.13
78573;BME280;67862;0.000;0.000;2023-07-13T04:24:39;98832.81;;;23.47;65.06
78573;BME280;67862;0.000;0.000;2023-07-13T04:27:05;98857.78;;;23.45;65.69
78573;BME280;67862;0.000;0.000;2023-07-13T04:29:30;98863.81;;;23.78;63.42
78573;BME280;67862;0.000;0.000;2023-07-13T04:31:55;98860.25;;;23.55;64.93
78573;BME280;67862;0.000;0.000;2023-07-13T04:34:21;98850.72;;;23.30;65.72
78573;BME280;67862;0.000;0.000;2023-07-13T04:36:47;98841.84;;;24.09;62.67
78573;BME280;67862;0.000;0.000;2023-07-13T04:39:14;98845.88;;;24.34;61.80
78573;BME280;67862;0.000;0.000;2023-07-13T04:41:39;98859.63;;;23.58;64.68
78573;BME280;67862;0.000;0.000;2023-07-13T04:44:05;98872.56;;;23.44;65.29
78573;BME280;67862;0.000;0.000;2023-07-13T04:46:30;98866.84;;;23.54;65.39
78573;BME280;67862;0.000;0.000;2023-07-13T04:48:56;98879.06;;;23.48;65.72
78573;BME280;67862;0.000;0.000;2023-07-13T04:51:23;98879.03;;;23.26;65.97
78573;BME280;67862;0.000;0.000;2023-07-13T04:53:48;98882.75;;;23.07;66.64
78573;BME280;67862;0.000;0.000;2023-07-13T04:56:13;98889.50;;;22.88;66.89
78573;BME280;67862;0.000;0.000;2023-07-13T04:58:39;98901.25;;;22.88;67.18
78573;BME280;67862;0.000;0.000;2023-07-13T05:01:05;98900.41;;;23.01;66.87
78573;BME280;67862;0.000;0.000;2023-07-13T05:03:31;98897.91;;;23.27;65.88
78573;BME280;67862;0.000;0.000;2023-07-13T05:06:00;98900.72;;;23.58;64.59
78573;BME280;67862;0.000;0.000;2023-07-13T05:08:26;98892.78;;;23.34;66.20
78573;BME280;67862;0.000;0.000;2023-07-13T05:10:52;98899.97;;;23.89;63.54
78573;BME280;67862;0.000;0.000;2023-07-13T05:13:17;98913.28;;;23.37;66.61
78573;BME280;67862;0.000;0.000;2023-07-13T05:15:43;98916.84;;;23.01;67.84
78573;BME280;67862;0.000;0.000;2023-07-13T05:18:08;98926.78;;;22.97;68.84
78573;BME280;67862;0.000;0.000;2023-07-13T05:20:34;98927.22;;;23.63;65.37
78573;BME280;67862;0.000;0.000;2023-07-13T05:22:59;98938.59;;;23.56;66.05
78573;BME280;67862;0.000;0.000;2023-07-13T05:25:24;98934.19;;;23.33;67.66
78573;BME280;67862;0.000;0.000;2023-07-13T05:27:50;98948.63;;;23.25;68.21
78573;BME280;67862;0.000;0.000;2023-07-13T05:30:15;98964.38;;;23.19;68.71
78573;BME280;67862;0.000;0.000;2023-07-13T05:32:41;98983.94;;;23.12;68.95
78573;BME280;67862;0.000;0.000;2023-07-13T05:35:06;99000.47;;;23.21;68.83
78573;BME280;67862;0.000;0.000;2023-07-13T05:37:32;98993.78;;;23.13;69.22
78573;BME280;67862;0.000;0.000;2023-07-13T05:39:57;98980.06;;;23.27;68.39
78573;BME280;67862;0.000;0.000;2023-07-13T05:42:23;98991.03;;;23.13;69.06
78573;BME280;67862;0.000;0.000;2023-07-13T05:44:48;98995.28;;;23.20;68.83
78573;BME280;67862;0.000;0.000;2023-07-13T05:47:13;99000.88;;;23.28;68.44
78573;BME280;67862;0.000;0.000;2023-07-13T05:49:42;99015.19;;;23.11;69.29
78573;BME280;67862;0.000;0.000;2023-07-13T05:52:07;99033.09;;;23.45;67.28
78573;BME280;67862;0.000;0.000;2023-07-13T05:54:32;99028.66;;;23.22;67.09
78573;BME280;67862;0.000;0.000;2023-07-13T05:56:58;99040.91;;;22.83;68.13
78573;BME280;67862;0.000;0.000;2023-07-13T05:59:23;99023.63;;;22.88;67.86
78573;BME280;67862;0.000;0.000;2023-07-13T06:01:50;99028.56;;;22.85;68.26
78573;BME280;67862;0.000;0.000;2023-07-13T06:04:17;99028.78;;;22.89;67.31
78573;BME280;67862;0.000;0.000;2023-07-13T06:06:43;99023.44;;;22.65;68.21
78573;BME280;67862;0.000;0.000;2023-07-13T06:09:08;99025.88;;;22.67;67.59
78573;BME280;67862;0.000;0.000;2023-07-13T06:11:34;99018.81;;;22.79;67.35
78573;BME280;67862;0.000;0.000;2023-07-13T06:14:00;99003.41;;;22.70;67.42
78573;BME280;67862;0.000;0.000;2023-07-13T06:16:25;98994.56;;;22.73;67.40
78573;BME280;67862;0.000;0.000;2023-07-13T06:18:51;98971.16;;;22.67;67.41
78573;BME280;67862;0.000;0.000;2023-07-13T06:21:17;98887.25;;;22.76;66.94
78573;BME280;67862;0.000;0.000;2023-07-13T06:23:43;98821.75;;;23.16;66.00
78573;BME280;67862;0.000;0.000;2023-07-13T06:26:09;98782.13;;;23.13;66.09
78573;BME280;67862;0.000;0.000;2023-07-13T06:28:35;98706.91;;;23.10;65.58
78573;BME280;67862;0.000;0.000;2023-07-13T06:31:01;98633.75;;;23.02;65.60
78573;BME280;67862;0.000;0.000;2023-07-13T06:33:26;98630.31;;;22.88;65.38
78573;BME280;67862;0.000;0.000;2023-07-13T06:35:51;98678.66;;;22.79;65.95
78573;BME280;67862;0.000;0.000;2023-07-13T06:38:17;98711.38;;;23.06;64.97
78573;BME280;67862;0.000;0.000;2023-07-13T06:40:42;98737.84;;;22.89;65.79
78573;BME280;67862;0.000;0.000;2023-07-13T06:43:08;98703.56;;;22.91;65.28
78573;BME280;67862;0.000;0.000;2023-07-13T06:45:36;98706.16;;;22.96;65.11
78573;BME280;67862;0.000;0.000;2023-07-13T06:48:05;98702.81;;;22.99;64.79
78573;BME280;67862;0.000;0.000;2023-07-13T06:50:30;98690.44;;;23.02;64.76
78573;BME280;67862;0.000;0.000;2023-07-13T06:52:56;98706.69;;;22.98;64.65
78573;BME280;67862;0.000;0.000;2023-07-13T06:55:21;98699.69;;;22.92;64.79
78573;BME280;67862;0.000;0.000;2023-07-13T06:57:47;98706.53;;;23.03;64.47
78573;BME280;67862;0.000;0.000;2023-07-13T07:00:12;98713.50;;;22.87;65.18
78573;BME280;67862;0.000;0.000;2023-07-13T07:02:38;98701.47;;;22.88;65.05
78573;BME280;67862;0.000;0.000;2023-07-13T07:05:04;98713.28;;;22.97;65.03
78573;BME280;67862;0.000;0.000;2023-07-13T07:07:29;98714.00;;;23.11;64.06
78573;BME280;67862;0.000;0.000;2023-07-13T07:09:54;98692.22;;;23.06;64.24
78573;BME280;67862;0.000;0.000;2023-07-13T07:12:20;98697.03;;;23.01;65.24
78573;BME280;67862;0.000;0.000;2023-07-13T07:14:45;98692.72;;;22.64;66.54
78573;BME280;67862;0.000;0.000;2023-07-13T07:17:11;98678.25;;;22.85;65.95
78573;BME280;67862;0.000;0.000;2023-07-13T07:19:37;98667.97;;;22.91;65.78
78573;BME280;67862;0.000;0.000;2023-07-13T07:22:02;98681.09;;;22.80;66.84
78573;BME280;67862;0.000;0.000;2023-07-13T07:24:28;98688.16;;;22.81;67.00
78573;BME280;67862;0.000;0.000;2023-07-13T07:26:54;98696.38;;;23.04;65.88
78573;BME280;67862;0.000;0.000;2023-07-13T07:29:19;98702.94;;;23.25;65.41
78573;BME280;67862;0.000;0.000;2023-07-13T07:31:45;98727.19;;;23.09;65.85
78573;BME280;67862;0.000;0.000;2023-07-13T07:34:10;98750.69;;;23.33;64.76
78573;BME280;67862;0.000;0.000;2023-07-13T07:36:35;98788.41;;;23.36;65.25
78573;BME280;67862;0.000;0.000;2023-07-13T07:39:01;98849.44;;;23.28;65.70
78573;BME280;67862;0.000;0.000;2023-07-13T07:41:26;98869.91;;;23.30;66.08
78573;BME280;67862;0.000;0.000;2023-07-13T07:43:51;98869.91;;;23.30;66.10
78573;BME280;67862;0.000;0.000;2023-07-13T07:46:17;98907.69;;;23.06;67.59
78573;BME280;67862;0.000;0.000;2023-07-13T07:48:42;98906.69;;;22.74;69.06
78573;BME280;67862;0.000;0.000;2023-07-13T07:51:07;98926.13;;;23.14;67.55
78573;BME280;67862;0.000;0.000;2023-07-13T07:53:33;98918.22;;;23.12;67.18
78573;BME280;67862;0.000;0.000;2023-07-13T07:55:58;98916.50;;;23.17;67.00
78573;BME280;67862;0.000;0.000;2023-07-13T07:58:23;98912.41;;;23.28;66.25
78573;BME280;67862;0.000;0.000;2023-07-13T08:00:49;98904.94;;;23.20;66.64
78573;BME280;67862;0.000;0.000;2023-07-13T08:03:14;98920.88;;;23.04;67.34
78573;BME280;67862;0.000;0.000;2023-07-13T08:05:40;98915.03;;;23.33;66.22
78573;BME280;67862;0.000;0.000;2023-07-13T08:08:05;98907.03;;;23.23;66.35
78573;BME280;67862;0.000;0.000;2023-07-13T08:10:31;98921.94;;;23.30;66.36
78573;BME280;67862;0.000;0.000;2023-07-13T08:12:57;98927.78;;;23.01;67.65
78573;BME280;67862;0.000;0.000;2023-07-13T08:15:22;98928.44;;;23.21;67.82
78573;BME280;67862;0.000;0.000;2023-07-13T08:17:48;98912.78;;;23.35;66.03
78573;BME280;67862;0.000;0.000;2023-07-13T08:20:14;98908.00;;;23.40;66.20
78573;BME280;67862;0.000;0.000;2023-07-13T08:22:39;98911.53;;;23.41;66.44
78573;BME280;67862;0.000;0.000;2023-07-13T08:25:04;98912.50;;;23.36;65.78
78573;BME280;67862;0.000;0.000;2023-07-13T08:27:30;98912.25;;;23.47;65.50
78573;BME280;67862;0.000;0.000;2023-07-13T08:29:55;98901.88;;;23.43;65.12
78573;BME280;67862;0.000;0.000;2023-07-13T08:32:21;98901.88;;;23.43;65.07
78573;BME280;67862;0.000;0.000;2023-07-13T08:34:47;98906.44;;;23.48;65.43
78573;BME280;67862;0.000;0.000;2023-07-13T08:37:12;98916.47;;;23.53;65.37
78573;BME280;67862;0.000;0.000;2023-07-13T08:39:38;98912.59;;;23.54;65.57
78573;BME280;67862;0.000;0.000;2023-07-13T08:42:46;98913.00;;;23.61;65.10
78573;BME280;67862;0.000;0.000;2023-07-13T08:45:38;98913.41;;;23.54;64.75
78573;BME280;67862;0.000;0.000;2023-07-13T08:47:44;98914.94;;;23.60;64.79
78573;BME280;67862;0.000;0.000;2023-07-13T08:50:15;98903.06;;;23.65;64.56
78573;BME280;67862;0.000;0.000;2023-07-13T08:52:42;98914.19;;;23.68;64.42
78573;BME280;67862;0.000;0.000;2023-07-13T08:55:18;98899.38;;;23.69;64.44
78573;BME280;67862;0.000;0.000;2023-07-13T08:57:46;98906.69;;;23.74;64.38
78573;BME280;67862;0.000;0.000;2023-07-13T09:00:13;98918.31;;;23.80;63.74
78573;BME280;67862;0.000;0.000;2023-07-13T09:05:29;98910.13;;;23.88;64.32
78573;BME280;67862;0.000;0.000;2023-07-13T09:08:05;98900.69;;;23.94;63.94
78573;BME280;67862;0.000;0.000;2023-07-13T09:10:44;98899.22;;;23.97;63.80
78573;BME280;67862;0.000;0.000;2023-07-13T09:13:20;98904.53;;;23.93;63.59
78573;BME280;67862;0.000;0.000;2023-07-13T09:15:49;98903.69;;;23.93;63.30
78573;BME280;67862;0.000;0.000;2023-07-13T09:18:37;98908.75;;;23.99;62.95
78573;BME280;67862;0.000;0.000;2023-07-13T09:23:38;98915.91;;;24.09;63.09
78573;BME280;67862;0.000;0.000;2023-07-13T09:26:05;98914.66;;;24.15;62.48
78573;BME280;67862;0.000;0.000;2023-07-13T09:28:37;98917.06;;;24.17;62.61
78573;BME280;67862;0.000;0.000;2023-07-13T09:33:41;98906.78;;;24.22;62.39
78573;BME280;67862;0.000;0.000;2023-07-13T09:36:17;98909.66;;;24.17;62.85
78573;BME280;67862;0.000;0.000;2023-07-13T09:38:43;98911.59;;;24.17;62.45
78573;BME280;67862;0.000;0.000;2023-07-13T09:41:23;98916.44;;;24.20;62.50
78573;BME280;67862;0.000;0.000;2023-07-13T09:46:37;98921.59;;;24.21;61.42
78573;BME280;67862;0.000;0.000;2023-07-13T09:49:03;98926.84;;;24.32;61.46
78573;BME280;67862;0.000;0.000;2023-07-13T09:51:28;98927.78;;;24.27;61.61
78573;BME280;67862;0.000;0.000;2023-07-13T09:53:53;98917.94;;;24.26;61.94
78573;BME280;67862;0.000;0.000;2023-07-13T09:56:23;98928.97;;;24.35;61.72
78573;BME280;67862;0.000;0.000;2023-07-13T09:58:48;98924.28;;;24.35;61.66
78573;BME280;67862;0.000;0.000;2023-07-13T10:01:14;98928.97;;;24.35;61.47
78573;BME280;67862;0.000;0.000;2023-07-13T10:03:41;98929.00;;;24.43;61.78
78573;BME280;67862;0.000;0.000;2023-07-13T10:06:18;98929.19;;;24.47;61.87
78573;BME280;67862;0.000;0.000;2023-07-13T10:08:47;98928.53;;;24.50;61.74
78573;BME280;67862;0.000;0.000;2023-07-13T10:13:46;98932.59;;;24.52;61.77
78573;BME280;67862;0.000;0.000;2023-07-13T10:16:14;98933.72;;;24.51;61.57
78573;BME280;67862;0.000;0.000;2023-07-13T10:18:45;98926.31;;;24.52;61.63
78573;BME280;67862;0.000;0.000;2023-07-13T10:21:15;98931.16;;;24.55;61.72
78573;BME280;67862;0.000;0.000;2023-07-13T10:23:42;98935.50;;;24.56;61.72
78573;BME280;67862;0.000;0.000;2023-07-13T10:26:09;98932.75;;;24.56;61.59
78573;BME280;67862;0.000;0.000;2023-07-13T10:28:39;98937.63;;;24.59;61.41
78573;BME280;67862;0.000;0.000;2023-07-13T10:31:11;98936.00;;;24.58;61.34
78573;BME280;67862;0.000;0.000;2023-07-13T10:33:37;98942.28;;;24.59;61.74
78573;BME280;67862;0.000;0.000;2023-07-13T10:36:26;98937.63;;;24.59;61.28
78573;BME280;67862;0.000;0.000;2023-07-13T10:38:51;98944.41;;;24.62;60.83
78573;BME280;67862;0.000;0.000;2023-07-13T10:41:18;98947.97;;;24.62;61.08
78573;BME280;67862;0.000;0.000;2023-07-13T10:43:46;98946.34;;;24.61;60.64
78573;BME280;67862;0.000;0.000;2023-07-13T10:46:15;98944.91;;;24.64;60.62
78573;BME280;67862;0.000;0.000;2023-07-13T10:48:42;98941.84;;;24.65;60.72
78573;BME280;67862;0.000;0.000;2023-07-13T10:51:09;98948.94;;;24.66;60.62
78573;BME280;67862;0.000;0.000;2023-07-13T10:53:36;98943.47;;;24.66;60.49
78573;BME280;67862;0.000;0.000;2023-07-13T10:56:03;98941.19;;;24.68;60.69
78573;BME280;67862;0.000;0.000;2023-07-13T11:03:34;98949.91;;;24.70;60.48
78573;BME280;67862;0.000;0.000;2023-07-13T11:06:05;98944.44;;;24.70;60.59
78573;BME280;67862;0.000;0.000;2023-07-13T11:08:35;98940.56;;;24.71;60.37
78573;BME280;67862;0.000;0.000;2023-07-13T11:11:33;98942.19;;;24.72;60.56
78573;BME280;67862;0.000;0.000;2023-07-13T11:19:26;98942.84;;;24.78;60.11
78573;BME280;67862;0.000;0.000;2023-07-13T11:21:31;98948.81;;;24.80;59.85
78573;BME280;67862;0.000;0.000;2023-07-13T11:26:42;98941.72;;;24.79;59.99
78573;BME280;67862;0.000;0.000;2023-07-13T11:29:08;98943.03;;;24.81;59.39
78573;BME280;67862;0.000;0.000;2023-07-13T11:31:34;98940.28;;;24.81;59.28
78573;BME280;67862;0.000;0.000;2023-07-13T11:34:00;98940.28;;;24.81;59.34
78573;BME280;67862;0.000;0.000;2023-07-13T11:36:29;98927.84;;;24.84;59.23
78573;BME280;67862;0.000;0.000;2023-07-13T11:41:22;98925.59;;;24.86;59.09
78573;BME280;67862;0.000;0.000;2023-07-13T11:43:50;98929.13;;;24.87;58.50
78573;BME280;67862;0.000;0.000;2023-07-13T11:46:20;98927.19;;;24.87;58.46
78573;BME280;67862;0.000;0.000;2023-07-13T11:48:46;98918.63;;;24.89;58.28
78573;BME280;67862;0.000;0.000;2023-07-13T11:51:20;98926.06;;;24.88;58.30
78573;BME280;67862;0.000;0.000;2023-07-13T11:53:47;98919.78;;;24.88;57.97
78573;BME280;67862;0.000;0.000;2023-07-13T11:56:13;98915.09;;;24.88;57.75
78573;BME280;67862;0.000;0.000;2023-07-13T11:58:39;98935.13;;;24.89;57.86
78573;BME280;67862;0.000;0.000;2023-07-13T12:01:05;98922.69;;;24.91;58.12
78573;BME280;67862;0.000;0.000;2023-07-13T12:03:32;98922.06;;;24.94;57.54
78573;BME280;67862;0.000;0.000;2023-07-13T12:06:02;98914.63;;;24.95;57.79
78573;BME280;67862;0.000;0.000;2023-07-13T12:08:31;98935.47;;;24.96;57.66
78573;BME280;67862;0.000;0.000;2023-07-13T12:10:57;98933.84;;;24.95;57.56
78573;BME280;67862;0.000;0.000;2023-07-13T12:13:22;98927.69;;;24.98;57.56
78573;BME280;67862;0.000;0.000;2023-07-13T12:15:47;98921.72;;;24.96;57.17
78573;BME280;67862;0.000;0.000;2023-07-13T12:18:20;98923.34;;;24.97;56.82
78573;BME280;67862;0.000;0.000;2023-07-13T12:20:47;98920.91;;;24.95;56.77
78573;BME280;67862;0.000;0.000;2023-07-13T12:25:44;98909.63;;;24.97;56.61
78573;BME280;67862;0.000;0.000;2023-07-13T12:31:00;98912.25;;;25.02;55.19
78573;BME280;67862;0.000;0.000;2023-07-13T12:33:28;98921.59;;;25.01;55.81
78573;BME280;67862;0.000;0.000;2023-07-13T12:35:53;98909.00;;;25.00;55.47
78573;BME280;67862;0.000;0.000;2023-07-13T12:38:19;98905.63;;;25.03;55.45
78573;BME280;67862;0.000;0.000;2023-07-13T12:40:49;98901.41;;;25.05;55.06
78573;BME280;67862;0.000;0.000;2023-07-13T12:43:15;98906.91;;;25.05;55.00
78573;BME280;67862;0.000;0.000;2023-07-13T12:48:25;98910.94;;;25.08;55.10
78573;BME280;67862;0.000;0.000;2023-07-13T12:50:51;98898.03;;;25.08;54.85
78573;BME280;67862;0.000;0.000;2023-07-13T12:53:30;98892.84;;;25.07;55.07
78573;BME280;67862;0.000;0.000;2023-07-13T12:55:59;98910.47;;;25.06;54.64
78573;BME280;67862;0.000;0.000;2023-07-13T13:00:56;98908.88;;;25.14;54.89
78573;BME280;67862;0.000;0.000;2023-07-13T13:03:24;98900.94;;;25.12;54.39
78573;BME280;67862;0.000;0.000;2023-07-13T13:05:58;98900.47;;;25.10;54.65
78573;BME280;67862;0.000;0.000;2023-07-13T13:08:24;98900.16;;;25.11;54.52
78573;BME280;67862;0.000;0.000;2023-07-13T13:10:50;98908.38;;;25.11;54.58
78573;BME280;67862;0.000;0.000;2023-07-13T13:13:15;98919.69;;;25.10;54.73
78573;BME280;67862;0.000;0.000;2023-07-13T13:15:40;98914.19;;;25.10;54.58
78573;BME280;67862;0.000;0.000;2023-07-13T13:18:18;98911.47;;;25.10;54.70
78573;BME280;67862;0.000;0.000;2023-07-13T13:20:43;98914.19;;;25.10;54.38
78573;BME280;67862;0.000;0.000;2023-07-13T13:23:16;98902.09;;;25.11;54.64
78573;BME280;67862;0.000;0.000;2023-07-13T13:25:43;98897.72;;;25.10;54.65
78573;BME280;67862;0.000;0.000;2023-07-13T13:28:19;98887.22;;;25.12;54.54
78573;BME280;67862;0.000;0.000;2023-07-13T13:30:46;98876.72;;;25.14;54.67
78573;BME280;67862;0.000;0.000;2023-07-13T13:33:13;98879.94;;;25.16;54.39
78573;BME280;67862;0.000;0.000;2023-07-13T13:35:40;98887.38;;;25.16;54.69
78573;BME280;67862;0.000;0.000;2023-07-13T13:38:16;98882.69;;;25.16;54.48
78573;BME280;67862;0.000;0.000;2023-07-13T13:40:42;98890.59;;;25.18;54.35
78573;BME280;67862;0.000;0.000;2023-07-13T13:43:15;98904.84;;;25.20;54.07
78573;BME280;67862;0.000;0.000;2023-07-13T13:45:41;98901.28;;;25.19;54.34
78573;BME280;67862;0.000;0.000;2023-07-13T13:48:07;98907.75;;;25.23;54.25
78573;BME280;67862;0.000;0.000;2023-07-13T13:50:38;98902.91;;;25.20;54.50